sensor_id;sensor_type;location;lat;lon;timestamp;temperature;humidity
16893;DHT22;8563;52.242;9.098;2023-04-15T00:00:06;7.50;99.90
16893;DHT22;8563;52.242;9.098;2023-04-15T00:02:47;7.50;99.90
16893;DHT22;8563;52.242;9.098;2023-04-15T00:05:20;7.40;99.90
16893;DHT22;8563;52.242;9.098;2023-04-15T00:07:52;7.50;99.90
16893;DHT22;8563;52.242;9.098;2023-04-15T00:10:25;7.50;99.90
16893;DHT22;8563;52.242;9.098;2023-04-15T00:12:57;7.40;99.90
16893;DHT22;8563;52.242;9.098;2023-04-15T00:15:29;7.40;99.90
16893;DHT22;8563;52.242;9.098;2023-04-15T00:18:01;7.40;99.90
16893;DHT22;8563;52.242;9.098;2023-04-15T00:20:35;7.40;99.90
16893;DHT22;8563;52.242;9.098;2023-04-15T00:23:08;7.40;99.90
16893;DHT22;8563;52.242;9.098;2023-04-15T00:25:40;7.40;99.90
16893;DHT22;8563;52.242;9.098;2023-04-15T00:28:12;7.40;99.90
16893;DHT22;8563;52.242;9.098;2023-04-15T00:30:44;7.40;99.90
16893;DHT22;8563;52.242;9.098;2023-04-15T00:33:16;7.40;99.90
16893;DHT22;8563;52.242;9.098;2023-04-15T00:35:50;7.40;99.90
16893;DHT22;8563;52.242;9.098;2023-04-15T00:38:23;7.40;99.90
16893;DHT22;8563;52.242;9.098;2023-04-15T00:40:55;7.30;99.90
16893;DHT22;8563;52.242;9.098;2023-04-15T00:43:28;7.30;99.90
16893;DHT22;8563;52.242;9.098;2023-04-15T00:46:00;7.30;99.90
16893;DHT22;8563;52.242;9.098;2023-04-15T00:48:35;7.30;99.90
16893;DHT22;8563;52.242;9.098;2023-04-15T00:51:10;7.30;99.90
16893;DHT22;8563;52.242;9.098;2023-04-15T00:53:42;7.30;99.90
16893;DHT22;8563;52.242;9.098;2023-04-15T00:56:15;7.20;99.90
16893;DHT22;8563;52.242;9.098;2023-04-15T00:58:47;7.20;99.90
16893;DHT22;8563;52.242;9.098;2023-04-15T01:01:20;7.20;99.90
16893;DHT22;8563;52.242;9.098;2023-04-15T01:03:54;7.20;99.90
16893;DHT22;8563;52.242;9.098;2023-04-15T01:06:28;7.20;99.90
16893;DHT22;8563;52.242;9.098;2023-04-15T01:09:00;7.20;99.90
16893;DHT22;8563;52.242;9.098;2023-04-15T01:11:32;7.20;99.90
16893;DHT22;8563;52.242;9.098;2023-04-15T01:14:06;7.20;99.90
16893;DHT22;8563;52.242;9.098;2023-04-15T01:16:40;7.20;99.90
16893;DHT22;8563;52.242;9.098;2023-04-15T01:19:13;7.20;99.90
16893;DHT22;8563;52.242;9.098;2023-04-15T01:21:49;7.20;99.90
16893;DHT22;8563;52.242;9.098;2023-04-15T01:24:22;7.20;99.90
16893;DHT22;8563;52.242;9.098;2023-04-15T01:26:56;7.30;99.90
16893;DHT22;8563;52.242;9.098;2023-04-15T01:29:30;7.30;99.90
16893;DHT22;8563;52.242;9.098;2023-04-15T01:32:02;7.30;99.90
16893;DHT22;8563;52.242;9.098;2023-04-15T01:34:34;7.30;99.90
16893;DHT22;8563;52.242;9.098;2023-04-15T01:37:06;7.30;99.90
16893;DHT22;8563;52.242;9.098;2023-04-15T01:39:38;7.30;99.90
16893;DHT22;8563;52.242;9.098;2023-04-15T01:42:12;7.30;99.90
16893;DHT22;8563;52.242;9.098;2023-04-15T01:44:44;7.30;99.90
16893;DHT22;8563;52.242;9.098;2023-04-15T01:47:16;7.30;99.90
16893;DHT22;8563;52.242;9.098;2023-04-15T01:49:49;7.30;99.90
16893;DHT22;8563;52.242;9.098;2023-04-15T01:52:21;7.30;99.90
16893;DHT22;8563;52.242;9.098;2023-04-15T01:54:53;7.30;99.90
16893;DHT22;8563;52.242;9.098;2023-04-15T01:57:27;7.20;99.90
16893;DHT22;8563;52.242;9.098;2023-04-15T01:59:59;7.20;99.90
16893;DHT22;8563;52.242;9.098;2023-04-15T02:02:32;7.20;99.90
16893;DHT22;8563;52.242;9.098;2023-04-15T02:05:06;7.20;99.90
16893;DHT22;8563;52.242;9.098;2023-04-15T02:07:38;7.10;99.90
16893;DHT22;8563;52.242;9.098;2023-04-15T02:10:12;7.20;99.90
16893;DHT22;8563;52.242;9.098;2023-04-15T02:12:47;7.20;99.90
16893;DHT22;8563;52.242;9.098;2023-04-15T02:15:19;7.20;99.90
16893;DHT22;8563;52.242;9.098;2023-04-15T02:17:54;7.20;99.90
16893;DHT22;8563;52.242;9.098;2023-04-15T02:20:26;7.20;99.90
16893;DHT22;8563;52.242;9.098;2023-04-15T02:23:02;7.10;99.90
16893;DHT22;8563;52.242;9.098;2023-04-15T02:25:37;7.10;99.90
16893;DHT22;8563;52.242;9.098;2023-04-15T02:28:11;7.20;99.90
16893;DHT22;8563;52.242;9.098;2023-04-15T02:30:46;7.20;99.90
16893;DHT22;8563;52.242;9.098;2023-04-15T02:33:20;7.20;99.90
16893;DHT22;8563;52.242;9.098;2023-04-15T02:35:52;7.20;99.90
16893;DHT22;8563;52.242;9.098;2023-04-15T02:38:25;7.30;99.90
16893;DHT22;8563;52.242;9.098;2023-04-15T02:40:57;7.40;99.90
16893;DHT22;8563;52.242;9.098;2023-04-15T02:43:31;7.40;99.90
16893;DHT22;8563;52.242;9.098;2023-04-15T02:46:04;7.50;99.90
16893;DHT22;8563;52.242;9.098;2023-04-15T02:48:36;7.50;99.90
16893;DHT22;8563;52.242;9.098;2023-04-15T02:51:16;7.50;99.90
16893;DHT22;8563;52.242;9.098;2023-04-15T02:53:49;7.50;99.90
16893;DHT22;8563;52.242;9.098;2023-04-15T02:56:22;7.50;99.90
16893;DHT22;8563;52.242;9.098;2023-04-15T02:58:55;7.50;99.90
16893;DHT22;8563;52.242;9.098;2023-04-15T03:01:28;7.50;99.90
16893;DHT22;8563;52.242;9.098;2023-04-15T03:04:00;7.60;99.90
16893;DHT22;8563;52.242;9.098;2023-04-15T03:06:32;7.60;99.90
16893;DHT22;8563;52.242;9.098;2023-04-15T03:09:04;7.60;99.90
16893;DHT22;8563;52.242;9.098;2023-04-15T03:11:39;7.60;99.90
16893;DHT22;8563;52.242;9.098;2023-04-15T03:14:15;7.50;99.90
16893;DHT22;8563;52.242;9.098;2023-04-15T03:16:50;7.60;99.90
16893;DHT22;8563;52.242;9.098;2023-04-15T03:19:22;7.60;99.90
16893;DHT22;8563;52.242;9.098;2023-04-15T03:21:55;7.60;99.90
16893;DHT22;8563;52.242;9.098;2023-04-15T03:24:27;7.60;99.90
16893;DHT22;8563;52.242;9.098;2023-04-15T03:27:01;7.70;99.90
16893;DHT22;8563;52.242;9.098;2023-04-15T03:29:35;7.60;99.90
16893;DHT22;8563;52.242;9.098;2023-04-15T03:32:07;7.70;99.90
16893;DHT22;8563;52.242;9.098;2023-04-15T03:34:40;7.70;99.90
16893;DHT22;8563;52.242;9.098;2023-04-15T03:37:12;7.70;99.90
16893;DHT22;8563;52.242;9.098;2023-04-15T03:39:44;7.60;99.90
16893;DHT22;8563;52.242;9.098;2023-04-15T03:42:17;7.60;99.90
16893;DHT22;8563;52.242;9.098;2023-04-15T03:44:50;7.60;99.90
16893;DHT22;8563;52.242;9.098;2023-04-15T03:47:23;7.60;99.90
16893;DHT22;8563;52.242;9.098;2023-04-15T03:49:55;7.60;99.90
16893;DHT22;8563;52.242;9.098;2023-04-15T03:52:27;7.60;99.90
16893;DHT22;8563;52.242;9.098;2023-04-15T03:54:59;7.60;99.90
16893;DHT22;8563;52.242;9.098;2023-04-15T03:57:32;7.60;99.90
16893;DHT22;8563;52.242;9.098;2023-04-15T04:00:10;7.60;99.90
16893;DHT22;8563;52.242;9.098;2023-04-15T04:02:42;7.60;99.90
16893;DHT22;8563;52.242;9.098;2023-04-15T04:05:15;7.60;99.90
16893;DHT22;8563;52.242;9.098;2023-04-15T04:07:48;7.70;99.90
16893;DHT22;8563;52.242;9.098;2023-04-15T04:10:20;7.70;99.90
16893;DHT22;8563;52.242;9.098;2023-04-15T04:12:52;7.70;99.90
16893;DHT22;8563;52.242;9.098;2023-04-15T04:15:26;7.70;99.90
16893;DHT22;8563;52.242;9.098;2023-04-15T04:17:58;7.70;99.90
16893;DHT22;8563;52.242;9.098;2023-04-15T04:20:30;7.70;99.90
16893;DHT22;8563;52.242;9.098;2023-04-15T04:23:03;7.70;99.90
16893;DHT22;8563;52.242;9.098;2023-04-15T04:25:35;7.60;99.90
16893;DHT22;8563;52.242;9.098;2023-04-15T04:28:07;7.70;99.90
16893;DHT22;8563;52.242;9.098;2023-04-15T04:30:41;7.70;99.90
16893;DHT22;8563;52.242;9.098;2023-04-15T04:33:13;7.70;99.90
16893;DHT22;8563;52.242;9.098;2023-04-15T04:35:46;7.80;99.90
16893;DHT22;8563;52.242;9.098;2023-04-15T04:38:18;7.80;99.90
16893;DHT22;8563;52.242;9.098;2023-04-15T04:40:50;7.80;99.90
16893;DHT22;8563;52.242;9.098;2023-04-15T04:43:23;7.80;99.90
16893;DHT22;8563;52.242;9.098;2023-04-15T04:45:56;7.80;99.90
16893;DHT22;8563;52.242;9.098;2023-04-15T04:48:29;7.80;99.90
16893;DHT22;8563;52.242;9.098;2023-04-15T04:51:01;7.90;99.90
16893;DHT22;8563;52.242;9.098;2023-04-15T04:53:33;7.90;99.90
16893;DHT22;8563;52.242;9.098;2023-04-15T04:56:07;7.90;99.90
16893;DHT22;8563;52.242;9.098;2023-04-15T04:58:39;7.80;99.90
16893;DHT22;8563;52.242;9.098;2023-04-15T05:01:13;7.80;99.90
16893;DHT22;8563;52.242;9.098;2023-04-15T05:03:45;7.80;99.90
16893;DHT22;8563;52.242;9.098;2023-04-15T05:06:18;7.80;99.90
16893;DHT22;8563;52.242;9.098;2023-04-15T05:08:50;7.90;99.90
16893;DHT22;8563;52.242;9.098;2023-04-15T05:11:22;7.90;99.90
16893;DHT22;8563;52.242;9.098;2023-04-15T05:13:54;7.80;99.90
16893;DHT22;8563;52.242;9.098;2023-04-15T05:16:29;7.80;99.90
16893;DHT22;8563;52.242;9.098;2023-04-15T05:19:01;7.90;99.90
16893;DHT22;8563;52.242;9.098;2023-04-15T05:21:33;7.90;99.90
16893;DHT22;8563;52.242;9.098;2023-04-15T05:24:06;7.90;99.90
16893;DHT22;8563;52.242;9.098;2023-04-15T05:26:38;7.90;99.90
16893;DHT22;8563;52.242;9.098;2023-04-15T05:29:10;7.90;99.90
16893;DHT22;8563;52.242;9.098;2023-04-15T05:31:43;7.80;99.90
16893;DHT22;8563;52.242;9.098;2023-04-15T05:34:16;7.80;99.90
16893;DHT22;8563;52.242;9.098;2023-04-15T05:36:48;7.80;99.90
16893;DHT22;8563;52.242;9.098;2023-04-15T05:39:20;7.90;99.90
16893;DHT22;8563;52.242;9.098;2023-04-15T05:41:52;7.90;99.90
16893;DHT22;8563;52.242;9.098;2023-04-15T05:44:25;7.90;99.90
16893;DHT22;8563;52.242;9.098;2023-04-15T05:46:58;7.90;99.90
16893;DHT22;8563;52.242;9.098;2023-04-15T05:49:31;8.00;99.90
16893;DHT22;8563;52.242;9.098;2023-04-15T05:52:03;8.00;99.90
16893;DHT22;8563;52.242;9.098;2023-04-15T05:54:35;8.00;99.90
16893;DHT22;8563;52.242;9.098;2023-04-15T05:57:07;7.90;99.90
16893;DHT22;8563;52.242;9.098;2023-04-15T05:59:39;7.90;99.90
16893;DHT22;8563;52.242;9.098;2023-04-15T06:02:13;7.90;99.90
16893;DHT22;8563;52.242;9.098;2023-04-15T06:04:46;7.90;99.90
16893;DHT22;8563;52.242;9.098;2023-04-15T06:07:18;8.00;99.90
16893;DHT22;8563;52.242;9.098;2023-04-15T06:09:50;8.00;99.90
16893;DHT22;8563;52.242;9.098;2023-04-15T06:12:23;8.00;99.90
16893;DHT22;8563;52.242;9.098;2023-04-15T06:14:55;8.10;99.90
16893;DHT22;8563;52.242;9.098;2023-04-15T06:17:29;8.10;99.90
16893;DHT22;8563;52.242;9.098;2023-04-15T06:20:01;8.10;99.90
16893;DHT22;8563;52.242;9.098;2023-04-15T06:22:33;8.10;99.90
16893;DHT22;8563;52.242;9.098;2023-04-15T06:25:08;8.10;99.90
16893;DHT22;8563;52.242;9.098;2023-04-15T06:27:40;8.20;99.90
16893;DHT22;8563;52.242;9.098;2023-04-15T06:30:13;8.20;99.90
16893;DHT22;8563;52.242;9.098;2023-04-15T06:32:46;8.10;99.90
16893;DHT22;8563;52.242;9.098;2023-04-15T06:35:18;8.00;99.90
16893;DHT22;8563;52.242;9.098;2023-04-15T06:37:51;8.00;99.90
16893;DHT22;8563;52.242;9.098;2023-04-15T06:40:23;8.10;99.90
16893;DHT22;8563;52.242;9.098;2023-04-15T06:42:55;8.10;99.90
16893;DHT22;8563;52.242;9.098;2023-04-15T06:45:27;8.10;99.90
16893;DHT22;8563;52.242;9.098;2023-04-15T06:48:02;8.10;99.90
16893;DHT22;8563;52.242;9.098;2023-04-15T06:50:34;8.10;99.90
16893;DHT22;8563;52.242;9.098;2023-04-15T06:53:07;8.00;99.90
16893;DHT22;8563;52.242;9.098;2023-04-15T06:55:39;8.00;99.90
16893;DHT22;8563;52.242;9.098;2023-04-15T06:58:12;8.00;99.90
16893;DHT22;8563;52.242;9.098;2023-04-15T07:00:44;8.10;99.90
16893;DHT22;8563;52.242;9.098;2023-04-15T07:03:18;8.10;99.90
16893;DHT22;8563;52.242;9.098;2023-04-15T07:05:50;8.20;99.90
16893;DHT22;8563;52.242;9.098;2023-04-15T07:08:22;8.20;99.90
16893;DHT22;8563;52.242;9.098;2023-04-15T07:10:55;8.20;99.90
16893;DHT22;8563;52.242;9.098;2023-04-15T07:13:30;8.30;99.90
16893;DHT22;8563;52.242;9.098;2023-04-15T07:16:04;8.20;99.90
16893;DHT22;8563;52.242;9.098;2023-04-15T07:18:38;8.20;99.90
16893;DHT22;8563;52.242;9.098;2023-04-15T07:21:10;8.20;99.90
16893;DHT22;8563;52.242;9.098;2023-04-15T07:23:42;8.20;99.90
16893;DHT22;8563;52.242;9.098;2023-04-15T07:26:14;8.20;99.90
16893;DHT22;8563;52.242;9.098;2023-04-15T07:28:47;8.20;99.90
16893;DHT22;8563;52.242;9.098;2023-04-15T07:31:20;8.20;99.90
16893;DHT22;8563;52.242;9.098;2023-04-15T07:33:54;8.30;99.90
16893;DHT22;8563;52.242;9.098;2023-04-15T07:36:26;8.30;99.90
16893;DHT22;8563;52.242;9.098;2023-04-15T07:38:59;8.30;99.90
16893;DHT22;8563;52.242;9.098;2023-04-15T07:41:33;8.30;99.90
16893;DHT22;8563;52.242;9.098;2023-04-15T07:44:05;8.30;99.90
16893;DHT22;8563;52.242;9.098;2023-04-15T07:46:37;8.30;99.90
16893;DHT22;8563;52.242;9.098;2023-04-15T07:49:11;8.30;99.90
16893;DHT22;8563;52.242;9.098;2023-04-15T07:51:43;8.30;99.90
16893;DHT22;8563;52.242;9.098;2023-04-15T07:54:15;8.40;99.90
16893;DHT22;8563;52.242;9.098;2023-04-15T07:56:47;8.40;99.90
16893;DHT22;8563;52.242;9.098;2023-04-15T07:59:20;8.40;99.90
16893;DHT22;8563;52.242;9.098;2023-04-15T08:01:52;8.30;99.90
16893;DHT22;8563;52.242;9.098;2023-04-15T08:04:26;8.30;99.90
16893;DHT22;8563;52.242;9.098;2023-04-15T08:06:58;8.20;99.90
16893;DHT22;8563;52.242;9.098;2023-04-15T08:09:30;8.20;99.90
16893;DHT22;8563;52.242;9.098;2023-04-15T08:12:03;8.20;99.90
16893;DHT22;8563;52.242;9.098;2023-04-15T08:14:35;8.20;99.90
16893;DHT22;8563;52.242;9.098;2023-04-15T08:17:07;8.30;99.90
16893;DHT22;8563;52.242;9.098;2023-04-15T08:19:41;8.30;99.90
16893;DHT22;8563;52.242;9.098;2023-04-15T08:22:13;8.30;99.90
16893;DHT22;8563;52.242;9.098;2023-04-15T08:24:45;8.30;99.90
16893;DHT22;8563;52.242;9.098;2023-04-15T08:27:18;8.40;99.90
16893;DHT22;8563;52.242;9.098;2023-04-15T08:29:50;8.50;99.90
16893;DHT22;8563;52.242;9.098;2023-04-15T08:32:22;8.40;99.90
16893;DHT22;8563;52.242;9.098;2023-04-15T08:34:57;8.40;99.90
16893;DHT22;8563;52.242;9.098;2023-04-15T08:37:30;8.40;99.90
16893;DHT22;8563;52.242;9.098;2023-04-15T08:40:02;8.50;99.90
16893;DHT22;8563;52.242;9.098;2023-04-15T08:42:42;8.40;99.90
16893;DHT22;8563;52.242;9.098;2023-04-15T08:45:15;8.40;99.90
16893;DHT22;8563;52.242;9.098;2023-04-15T08:47:51;8.40;99.90
16893;DHT22;8563;52.242;9.098;2023-04-15T08:50:28;8.30;99.90
16893;DHT22;8563;52.242;9.098;2023-04-15T08:53:02;8.40;99.90
16893;DHT22;8563;52.242;9.098;2023-04-15T08:55:36;8.40;99.90
16893;DHT22;8563;52.242;9.098;2023-04-15T08:58:11;8.40;99.90
16893;DHT22;8563;52.242;9.098;2023-04-15T09:00:45;8.50;99.90
16893;DHT22;8563;52.242;9.098;2023-04-15T09:03:18;8.50;99.90
16893;DHT22;8563;52.242;9.098;2023-04-15T09:05:52;8.50;99.90
16893;DHT22;8563;52.242;9.098;2023-04-15T09:08:25;8.60;99.90
16893;DHT22;8563;52.242;9.098;2023-04-15T09:10:57;8.60;99.90
16893;DHT22;8563;52.242;9.098;2023-04-15T09:13:30;8.60;99.90
16893;DHT22;8563;52.242;9.098;2023-04-15T09:16:04;8.60;99.90
16893;DHT22;8563;52.242;9.098;2023-04-15T09:18:38;8.60;99.90
16893;DHT22;8563;52.242;9.098;2023-04-15T09:21:14;8.60;99.90
16893;DHT22;8563;52.242;9.098;2023-04-15T09:23:54;8.60;99.90
16893;DHT22;8563;52.242;9.098;2023-04-15T09:26:31;8.70;99.90
16893;DHT22;8563;52.242;9.098;2023-04-15T09:29:04;8.60;99.90
16893;DHT22;8563;52.242;9.098;2023-04-15T09:31:38;8.60;99.90
16893;DHT22;8563;52.242;9.098;2023-04-15T09:34:10;8.70;99.90
16893;DHT22;8563;52.242;9.098;2023-04-15T09:36:53;8.70;99.90
16893;DHT22;8563;52.242;9.098;2023-04-15T09:39:25;8.70;99.90
16893;DHT22;8563;52.242;9.098;2023-04-15T09:42:05;8.80;99.90
16893;DHT22;8563;52.242;9.098;2023-04-15T09:44:37;8.80;99.90
16893;DHT22;8563;52.242;9.098;2023-04-15T09:47:26;8.80;99.90
16893;DHT22;8563;52.242;9.098;2023-04-15T09:49:59;8.80;99.90
16893;DHT22;8563;52.242;9.098;2023-04-15T09:52:33;8.80;99.90
16893;DHT22;8563;52.242;9.098;2023-04-15T09:55:13;8.80;99.90
16893;DHT22;8563;52.242;9.098;2023-04-15T09:57:46;8.80;99.90
16893;DHT22;8563;52.242;9.098;2023-04-15T10:00:19;8.80;99.90
16893;DHT22;8563;52.242;9.098;2023-04-15T10:02:51;8.90;99.90
16893;DHT22;8563;52.242;9.098;2023-04-15T10:05:23;8.80;99.90
16893;DHT22;8563;52.242;9.098;2023-04-15T10:07:57;8.80;99.90
16893;DHT22;8563;52.242;9.098;2023-04-15T10:10:30;8.90;99.90
16893;DHT22;8563;52.242;9.098;2023-04-15T10:13:03;8.90;99.90
16893;DHT22;8563;52.242;9.098;2023-04-15T10:15:36;8.90;99.90
16893;DHT22;8563;52.242;9.098;2023-04-15T10:18:09;8.90;99.90
16893;DHT22;8563;52.242;9.098;2023-04-15T10:20:43;8.90;99.90
16893;DHT22;8563;52.242;9.098;2023-04-15T10:23:17;8.90;99.90
16893;DHT22;8563;52.242;9.098;2023-04-15T10:25:51;8.90;99.90
16893;DHT22;8563;52.242;9.098;2023-04-15T10:28:25;8.90;99.90
16893;DHT22;8563;52.242;9.098;2023-04-15T10:30:57;8.90;99.90
16893;DHT22;8563;52.242;9.098;2023-04-15T10:33:30;8.90;99.90
16893;DHT22;8563;52.242;9.098;2023-04-15T10:36:04;8.80;99.90
16893;DHT22;8563;52.242;9.098;2023-04-15T10:38:40;8.90;99.90
16893;DHT22;8563;52.242;9.098;2023-04-15T10:41:17;8.80;99.90
16893;DHT22;8563;52.242;9.098;2023-04-15T10:43:52;8.90;99.90
16893;DHT22;8563;52.242;9.098;2023-04-15T10:46:34;8.90;99.90
16893;DHT22;8563;52.242;9.098;2023-04-15T10:49:09;8.90;99.90
16893;DHT22;8563;52.242;9.098;2023-04-15T10:51:43;8.90;99.90
16893;DHT22;8563;52.242;9.098;2023-04-15T10:54:31;8.90;99.90
16893;DHT22;8563;52.242;9.098;2023-04-15T10:57:14;8.90;99.90
16893;DHT22;8563;52.242;9.098;2023-04-15T11:00:08;8.90;99.90
16893;DHT22;8563;52.242;9.098;2023-04-15T11:02:43;8.90;99.90
16893;DHT22;8563;52.242;9.098;2023-04-15T11:05:16;8.90;99.90
16893;DHT22;8563;52.242;9.098;2023-04-15T11:07:51;8.90;99.90
16893;DHT22;8563;52.242;9.098;2023-04-15T11:10:52;8.90;99.90
16893;DHT22;8563;52.242;9.098;2023-04-15T11:13:27;9.00;99.90
16893;DHT22;8563;52.242;9.098;2023-04-15T11:16:01;9.00;99.90
16893;DHT22;8563;52.242;9.098;2023-04-15T11:18:34;9.10;99.90
16893;DHT22;8563;52.242;9.098;2023-04-15T11:21:08;9.10;99.90
16893;DHT22;8563;52.242;9.098;2023-04-15T11:23:41;9.00;99.90
16893;DHT22;8563;52.242;9.098;2023-04-15T11:26:18;9.10;99.90
16893;DHT22;8563;52.242;9.098;2023-04-15T11:28:50;9.10;99.90
16893;DHT22;8563;52.242;9.098;2023-04-15T11:31:22;9.10;99.90
16893;DHT22;8563;52.242;9.098;2023-04-15T11:33:59;9.20;99.90
16893;DHT22;8563;52.242;9.098;2023-04-15T11:36:32;9.20;99.90
16893;DHT22;8563;52.242;9.098;2023-04-15T11:39:06;9.20;99.90
16893;DHT22;8563;52.242;9.098;2023-04-15T11:41:41;9.20;99.90
16893;DHT22;8563;52.242;9.098;2023-04-15T11:44:17;9.20;99.90
16893;DHT22;8563;52.242;9.098;2023-04-15T11:46:50;9.30;99.90
16893;DHT22;8563;52.242;9.098;2023-04-15T11:49:26;9.30;99.90
16893;DHT22;8563;52.242;9.098;2023-04-15T11:51:59;9.20;99.90
16893;DHT22;8563;52.242;9.098;2023-04-15T11:54:31;9.20;99.90
16893;DHT22;8563;52.242;9.098;2023-04-15T11:57:05;9.30;99.90
16893;DHT22;8563;52.242;9.098;2023-04-15T11:59:41;9.30;99.90
16893;DHT22;8563;52.242;9.098;2023-04-15T12:02:13;9.20;99.90
16893;DHT22;8563;52.242;9.098;2023-04-15T12:04:45;9.30;99.90
16893;DHT22;8563;52.242;9.098;2023-04-15T12:07:18;9.30;99.90
16893;DHT22;8563;52.242;9.098;2023-04-15T12:09:54;9.30;99.90
16893;DHT22;8563;52.242;9.098;2023-04-15T12:12:29;9.40;99.90
16893;DHT22;8563;52.242;9.098;2023-04-15T12:15:01;9.50;99.90
16893;DHT22;8563;52.242;9.098;2023-04-15T12:17:33;9.40;99.90
16893;DHT22;8563;52.242;9.098;2023-04-15T12:20:06;9.40;99.90
16893;DHT22;8563;52.242;9.098;2023-04-15T12:22:39;9.50;99.90
16893;DHT22;8563;52.242;9.098;2023-04-15T12:25:11;9.60;99.90
16893;DHT22;8563;52.242;9.098;2023-04-15T12:27:51;9.50;99.90
16893;DHT22;8563;52.242;9.098;2023-04-15T12:30:24;9.50;99.90
16893;DHT22;8563;52.242;9.098;2023-04-15T12:32:56;9.50;99.90
16893;DHT22;8563;52.242;9.098;2023-04-15T12:35:29;9.50;99.90
16893;DHT22;8563;52.242;9.098;2023-04-15T12:38:01;9.40;99.90
16893;DHT22;8563;52.242;9.098;2023-04-15T12:40:34;9.40;99.90
16893;DHT22;8563;52.242;9.098;2023-04-15T12:43:07;9.40;99.90
16893;DHT22;8563;52.242;9.098;2023-04-15T12:45:40;9.40;99.90
16893;DHT22;8563;52.242;9.098;2023-04-15T12:48:12;9.40;99.90
16893;DHT22;8563;52.242;9.098;2023-04-15T12:50:44;9.40;99.90
16893;DHT22;8563;52.242;9.098;2023-04-15T12:53:16;9.40;99.90
16893;DHT22;8563;52.242;9.098;2023-04-15T12:55:48;9.50;99.90
16893;DHT22;8563;52.242;9.098;2023-04-15T12:58:22;9.50;99.90
16893;DHT22;8563;52.242;9.098;2023-04-15T13:00:54;9.50;99.90
16893;DHT22;8563;52.242;9.098;2023-04-15T13:03:26;9.50;99.90
16893;DHT22;8563;52.242;9.098;2023-04-15T13:05:59;9.50;99.90
16893;DHT22;8563;52.242;9.098;2023-04-15T13:08:31;9.50;99.90
16893;DHT22;8563;52.242;9.098;2023-04-15T13:11:04;9.60;99.90
16893;DHT22;8563;52.242;9.098;2023-04-15T13:13:38;9.70;99.90
16893;DHT22;8563;52.242;9.098;2023-04-15T13:16:10;9.80;99.90
16893;DHT22;8563;52.242;9.098;2023-04-15T13:18:43;9.80;99.90
16893;DHT22;8563;52.242;9.098;2023-04-15T13:21:15;9.80;99.90
16893;DHT22;8563;52.242;9.098;2023-04-15T13:23:48;9.90;99.90
16893;DHT22;8563;52.242;9.098;2023-04-15T13:26:21;9.90;99.90
16893;DHT22;8563;52.242;9.098;2023-04-15T13:28:54;9.90;99.90
16893;DHT22;8563;52.242;9.098;2023-04-15T13:31:27;9.90;99.90
16893;DHT22;8563;52.242;9.098;2023-04-15T13:33:59;10.00;99.90
16893;DHT22;8563;52.242;9.098;2023-04-15T13:36:31;10.00;99.90
16893;DHT22;8563;52.242;9.098;2023-04-15T13:39:03;9.90;99.90
16893;DHT22;8563;52.242;9.098;2023-04-15T13:41:36;10.00;99.90
16893;DHT22;8563;52.242;9.098;2023-04-15T13:44:09;10.00;99.90
16893;DHT22;8563;52.242;9.098;2023-04-15T13:46:42;10.10;99.90
16893;DHT22;8563;52.242;9.098;2023-04-15T13:49:14;10.10;99.90
16893;DHT22;8563;52.242;9.098;2023-04-15T13:51:46;10.10;99.90
16893;DHT22;8563;52.242;9.098;2023-04-15T13:54:18;10.00;99.90
16893;DHT22;8563;52.242;9.098;2023-04-15T13:56:51;10.00;99.90
16893;DHT22;8563;52.242;9.098;2023-04-15T13:59:24;10.00;99.90
16893;DHT22;8563;52.242;9.098;2023-04-15T14:01:56;10.00;99.90
16893;DHT22;8563;52.242;9.098;2023-04-15T14:04:30;10.00;99.90
16893;DHT22;8563;52.242;9.098;2023-04-15T14:07:02;10.00;99.90
16893;DHT22;8563;52.242;9.098;2023-04-15T14:09:34;10.00;99.90
16893;DHT22;8563;52.242;9.098;2023-04-15T14:12:06;10.00;99.90
16893;DHT22;8563;52.242;9.098;2023-04-15T14:14:41;10.00;99.90
16893;DHT22;8563;52.242;9.098;2023-04-15T14:17:13;10.00;99.90
16893;DHT22;8563;52.242;9.098;2023-04-15T14:19:45;10.00;99.90
16893;DHT22;8563;52.242;9.098;2023-04-15T14:22:18;9.90;99.90
16893;DHT22;8563;52.242;9.098;2023-04-15T14:24:50;9.90;99.90
16893;DHT22;8563;52.242;9.098;2023-04-15T14:27:25;9.90;99.90
16893;DHT22;8563;52.242;9.098;2023-04-15T14:29:59;9.90;99.90
16893;DHT22;8563;52.242;9.098;2023-04-15T14:32:31;9.90;99.90
16893;DHT22;8563;52.242;9.098;2023-04-15T14:35:03;9.90;99.90
16893;DHT22;8563;52.242;9.098;2023-04-15T14:37:36;9.90;99.90
16893;DHT22;8563;52.242;9.098;2023-04-15T14:40:09;9.90;99.90
16893;DHT22;8563;52.242;9.098;2023-04-15T14:42:41;9.90;99.90
16893;DHT22;8563;52.242;9.098;2023-04-15T14:45:15;9.90;99.90
16893;DHT22;8563;52.242;9.098;2023-04-15T14:47:47;9.70;99.90
16893;DHT22;8563;52.242;9.098;2023-04-15T14:50:19;9.80;99.90
16893;DHT22;8563;52.242;9.098;2023-04-15T14:52:51;9.80;99.90
16893;DHT22;8563;52.242;9.098;2023-04-15T14:55:24;9.80;99.90
16893;DHT22;8563;52.242;9.098;2023-04-15T14:57:56;9.80;99.90
16893;DHT22;8563;52.242;9.098;2023-04-15T15:00:30;9.80;99.90
16893;DHT22;8563;52.242;9.098;2023-04-15T15:03:02;9.90;99.90
16893;DHT22;8563;52.242;9.098;2023-04-15T15:05:36;10.00;99.90
16893;DHT22;8563;52.242;9.098;2023-04-15T15:08:08;10.30;99.90
16893;DHT22;8563;52.242;9.098;2023-04-15T15:10:41;10.40;99.90
16893;DHT22;8563;52.242;9.098;2023-04-15T15:13:13;10.80;99.90
16893;DHT22;8563;52.242;9.098;2023-04-15T15:15:46;10.90;99.90
16893;DHT22;8563;52.242;9.098;2023-04-15T15:18:20;10.80;99.90
16893;DHT22;8563;52.242;9.098;2023-04-15T15:20:52;10.90;99.90
16893;DHT22;8563;52.242;9.098;2023-04-15T15:23:25;10.90;99.90
16893;DHT22;8563;52.242;9.098;2023-04-15T15:25:57;11.00;99.90
16893;DHT22;8563;52.242;9.098;2023-04-15T15:28:30;11.00;99.90
16893;DHT22;8563;52.242;9.098;2023-04-15T15:31:04;11.10;99.90
16893;DHT22;8563;52.242;9.098;2023-04-15T15:33:36;11.20;99.90
16893;DHT22;8563;52.242;9.098;2023-04-15T15:36:09;11.20;99.90
16893;DHT22;8563;52.242;9.098;2023-04-15T15:38:41;11.20;99.90
16893;DHT22;8563;52.242;9.098;2023-04-15T15:41:14;11.10;99.90
16893;DHT22;8563;52.242;9.098;2023-04-15T15:43:46;11.00;99.90
16893;DHT22;8563;52.242;9.098;2023-04-15T15:46:20;10.90;99.90
16893;DHT22;8563;52.242;9.098;2023-04-15T15:48:53;10.90;99.90
16893;DHT22;8563;52.242;9.098;2023-04-15T15:51:26;11.00;99.90
16893;DHT22;8563;52.242;9.098;2023-04-15T15:53:58;11.00;99.90
16893;DHT22;8563;52.242;9.098;2023-04-15T15:56:30;11.10;99.90
16893;DHT22;8563;52.242;9.098;2023-04-15T15:59:03;11.10;99.90
16893;DHT22;8563;52.242;9.098;2023-04-15T16:01:36;11.20;99.90
16893;DHT22;8563;52.242;9.098;2023-04-15T16:04:09;11.30;99.90
16893;DHT22;8563;52.242;9.098;2023-04-15T16:06:41;11.30;99.90
16893;DHT22;8563;52.242;9.098;2023-04-15T16:09:14;11.20;99.90
16893;DHT22;8563;52.242;9.098;2023-04-15T16:11:46;11.10;99.90
16893;DHT22;8563;52.242;9.098;2023-04-15T16:14:20;11.00;99.90
16893;DHT22;8563;52.242;9.098;2023-04-15T16:16:53;10.90;99.90
16893;DHT22;8563;52.242;9.098;2023-04-15T16:19:26;10.90;99.90
16893;DHT22;8563;52.242;9.098;2023-04-15T16:21:59;10.90;99.90
16893;DHT22;8563;52.242;9.098;2023-04-15T16:24:33;10.90;99.90
16893;DHT22;8563;52.242;9.098;2023-04-15T16:27:05;10.90;99.90
16893;DHT22;8563;52.242;9.098;2023-04-15T16:29:38;10.90;99.90
16893;DHT22;8563;52.242;9.098;2023-04-15T16:32:11;10.90;99.90
16893;DHT22;8563;52.242;9.098;2023-04-15T16:34:44;10.80;99.90
16893;DHT22;8563;52.242;9.098;2023-04-15T16:37:16;10.80;99.90